Winslow Lindbergh Regional Airport
KINW : now visible

Airfield :











YOU CAN JOIN US ON...

 
LOGIN :

Register | Disclaimer

   EN    FR    IT 

 









Legend :    VFR   Marginal VFR   IFR   Intensive IFR   Very Intensive IFR
Visi :
Ceiling :
>= 8 km
>= 3000ft
5 to 8 km
1000 to 3000 ft
1500m to 5 km
500 to 1000 ft
800 to 1500m
200 to 500 ft
< 800m
< 200 ft
Symbols :   Thunderstorms  Fog  Heavy snow  Heavy precipitations  Wind > 20 kt






- Airport Elevation : 4941 ft


KINW - Winslow Lindbergh Regional

CURRENT METAR :
  • 112156Z AUTO 23020G25KT 10SM CLR 38/02 A3009 RMK AO2 SLP098 T03780022

EXPIRED METARs :
  • 112056Z AUTO 30010G16KT 10SM CLR 36/02 A3011 RMK AO2 SLP108 T03560017 58022
  • 111956Z AUTO 18011G17KT 10SM CLR 36/02 A3013 RMK AO2 SLP112 T03610022

TAF KINW
Valid from the 11 at 18:00 until the 12 at 18:00 UTC


111720Z 1118/1218 13010KT P6SM FEW110
FM112000 26010G20KT P6SM SCT100
FM120200 24009KT P6SM SCT100
KZAB FIR / North America



MET'MAP, your aeronautical weather chart ! - Copyright ORBIFLY December 2007 - Disclaimer

ORBIFLY MET'MAP TEAM :

Programming & Development : Alexandra Zaïnal
Concept & original design : Baudouin d'Aumeries
Assistance for programming : Marc-Olivier Méhu
Technical & hardware support : Manuel Goepfert

Contact : metmap@orbifly.com




SOURCES & CREDITS :

   NOAA       Earth
Advisory